Date,TemperatureHighF,TemperatureAvgF,TemperatureLowF,DewpointHighF,DewpointAvgF,DewpointLowF,HumidityHigh,HumidityAvg,HumidityLow,PressureMaxIn,PressureMinIn,WindSpeedMaxMPH,WindSpeedAvgMPH,GustSpeedMaxMPH,PrecipitationSumIn
2013-2-9,37.6,31.0,28.9,30.7,26.0,24.1,85,81,76,29.32,29.23,10,4,10,0.00
2013-2-10,48.6,40.7,29.8,48.6,36.8,24.7,100,86,76,29.23,28.73,17,5,17,0.08
2013-2-11,49.3,36.3,30.9,49.3,30.7,24.9,100,80,75,29.09,28.70,28,11,28,0.04
2013-2-12,34.9,30.0,27.9,28.4,24.9,22.5,86,81,77,29.18,29.03,16,5,17,0.00
2013-2-13,43.9,31.9,21.0,36.1,27.5,19.1,100,84,74,29.03,28.82,9,2,9,0.00
2013-2-14,42.1,36.5,30.9,37.0,32.4,26.8,100,85,77,29.06,28.82,18,6,18,0.00
2013-2-15,33.3,29.1,21.9,27.4,23.9,17.0,89,81,77,29.23,29.03,13,4,13,0.00
2013-2-16,23.7,20.0,15.3,20.9,15.4,10.8,90,82,79,29.21,29.15,15,5,15,0.00
2013-2-17,31.5,19.6,11.3,25.1,14.6,7.4,86,81,77,29.29,29.18,11,3,11,0.00
2013-2-18,54.9,38.8,21.9,46.0,32.8,16.4,98,79,72,29.21,28.64,16,6,17,0.16
2013-2-19,44.6,21.4,15.3,44.6,18.0,10.8,100,87,80,29.15,28.59,25,10,25,0.08
2013-2-20,22.5,17.5,10.8,18.6,13.2,6.9,87,83,79,29.38,29.15,15,7,15,0.00
2013-2-21,30.2,25.1,21.6,24.2,20.2,17.5,85,81,78,29.41,29.15,15,4,15,0.00
2013-2-22,35.1,29.6,21.9,35.1,28.8,19.0,100,97,83,29.15,28.94,15,5,15,0.08
2013-2-23,29.8,27.1,25.3,25.4,22.7,20.7,89,83,78,29.06,29.00,6,0,6,0.00
2013-2-24,40.1,28.5,19.4,32.8,23.8,17.4,95,83,75,29.23,29.03,9,3,9,0.00
2013-2-25,48.6,33.2,21.9,40.3,29.1,21.8,100,86,73,29.26,29.06,11,2,11,0.00
2013-2-26,34.7,33.2,30.6,34.7,30.8,26.0,100,91,79,29.06,28.56,10,4,10,0.47
2013-2-27,35.2,33.3,31.6,35.2,33.3,31.6,100,100,100,28.73,28.56,15,2,15,0.08
2013-2-28,37.4,34.5,32.2,34.3,32.2,29.0,100,91,81,29.06,28.70,11,6,11,0.28